Terminal Aerodrome Forecast
Issued by NWS

Home | Current Version | Previous Version | Text Only | Print | Product List | Glossary On
Versions: 1 2 3 4 5 6 7 8 9 10 11 12 13 14 15 16
000
FTUS43 KJKL 240523
TAFSJS
TAF
KSJS 240523Z 2406/2506 17004KT P6SM SCT050
     FM240900 16004KT P6SM FEW250
     FM241600 19011G15KT P6SM FEW035 FEW250=

USA.gov is the U.S. government's official web portal to all federal, state and local government web resources and services.